WIF1A ENGM-ENOV
Flight info
| Callsign | WIF1A |
|---|---|
| Flight time | 0h 21m |
| Altitude | 24000 |
| Route | EVTOG DCT UTRUF DCT UFGUG DCT OBITI |
| Aircraft | DH8B/M-SDFGR/S |
Departure
| Time | 2026-05-01 10:08 |
|---|---|
| Airport | Oslo-Gardermoen International Airport (ENGM) |
Arrival
| Time | 2026-05-01 10:29 |
|---|---|
| Airport | Ørsta-Volda Airport, Hovden (ENOV) |
| Time | Latitude | Longitude | Altitude | Speed | Heading |
|---|---|---|---|---|---|
| 2026-05-01 09:59 | 60.19547 | 11.09031 | 677 ft | 0 kts | 61° |
| 2026-05-01 10:05 | 60.19554 | 11.09034 | 675 ft | 3 kts | 334° |
| 2026-05-01 10:05 | 60.19597 | 11.08954 | 677 ft | 10 kts | 356° |
| 2026-05-01 10:05 | 60.19689 | 11.09000 | 676 ft | 17 kts | 16° |
| 2026-05-01 10:06 | 60.19810 | 11.09005 | 675 ft | 19 kts | 304° |
| 2026-05-01 10:06 | 60.19853 | 11.08722 | 672 ft | 22 kts | 286° |
| 2026-05-01 10:06 | 60.19895 | 11.08432 | 669 ft | 0 kts | 285° |
| 2026-05-01 10:06 | 60.19896 | 11.08430 | 669 ft | 3 kts | 285° |
| 2026-05-01 10:07 | 60.19959 | 11.08296 | 669 ft | 19 kts | 320° |
| 2026-05-01 10:07 | 60.19946 | 11.08209 | 668 ft | 0 kts | 196° |
| 2026-05-01 10:07 | 60.19912 | 11.08188 | 668 ft | 39 kts | 196° |
| 2026-05-01 10:07 | 60.19307 | 11.07841 | 670 ft | 133 kts | 196° |
| 2026-05-01 10:08 | 60.17282 | 11.06546 | 1869 ft | 162 kts | 201° |
| 2026-05-01 10:08 | 60.16342 | 11.05242 | 2558 ft | 170 kts | 231° |
| 2026-05-01 10:08 | 60.15775 | 11.03127 | 3299 ft | 176 kts | 254° |
| 2026-05-01 10:09 | 60.15688 | 11.00664 | 4014 ft | 180 kts | 278° |
| 2026-05-01 10:09 | 60.16167 | 10.98339 | 4761 ft | 183 kts | 303° |
| 2026-05-01 10:09 | 60.17138 | 10.96660 | 5487 ft | 189 kts | 326° |
| 2026-05-01 10:09 | 60.18422 | 10.95895 | 6234 ft | 198 kts | 346° |
| 2026-05-01 10:10 | 60.19800 | 10.95602 | 6964 ft | 201 kts | 346° |
| 2026-05-01 10:10 | 60.21194 | 10.95277 | 7686 ft | 203 kts | 345° |
| 2026-05-01 10:10 | 60.24011 | 10.94506 | 9169 ft | 206 kts | 343° |
| 2026-05-01 10:11 | 60.24954 | 10.94221 | 9669 ft | 207 kts | 343° |
| 2026-05-01 10:11 | 60.26385 | 10.93757 | 10417 ft | 209 kts | 342° |
| 2026-05-01 10:11 | 60.27819 | 10.93261 | 11128 ft | 209 kts | 341° |
| 2026-05-01 10:11 | 60.29733 | 10.92539 | 12100 ft | 212 kts | 340° |
| 2026-05-01 10:12 | 60.31185 | 10.91956 | 12879 ft | 213 kts | 339° |
| 2026-05-01 10:12 | 60.32171 | 10.91540 | 13404 ft | 215 kts | 339° |
| 2026-05-01 10:12 | 60.35075 | 10.90214 | 14867 ft | 216 kts | 336° |
| 2026-05-01 10:13 | 60.36534 | 10.89489 | 15581 ft | 217 kts | 335° |
| 2026-05-01 10:13 | 60.38002 | 10.88716 | 16321 ft | 218 kts | 334° |
| 2026-05-01 10:13 | 60.41203 | 10.87578 | 17370 ft | 256 kts | 354° |
| 2026-05-01 10:14 | 60.56450 | 10.87688 | 21042 ft | 284 kts | 345° |
| 2026-05-01 10:14 | 60.63803 | 10.85482 | 22782 ft | 288 kts | 338° |
| 2026-05-01 10:14 | 60.65620 | 10.84079 | 23237 ft | 273 kts | 318° |
| 2026-05-01 10:14 | 60.67672 | 10.75488 | 24183 ft | 255 kts | 254° |
| 2026-05-01 10:15 | 60.64669 | 10.61246 | 24229 ft | 282 kts | 251° |
| 2026-05-01 10:15 | 60.64511 | 10.46193 | 24216 ft | 294 kts | 296° |
| 2026-05-01 10:15 | 60.70218 | 10.36154 | 24201 ft | 296 kts | 298° |
| 2026-05-01 10:15 | 60.75811 | 10.23410 | 24198 ft | 304 kts | 304° |
| 2026-05-01 10:16 | 60.81554 | 10.10648 | 24202 ft | 304 kts | 304° |
| 2026-05-01 10:16 | 60.87335 | 9.97927 | 24196 ft | 306 kts | 307° |
| 2026-05-01 10:16 | 60.98877 | 9.72294 | 24228 ft | 303 kts | 305° |
| 2026-05-01 10:17 | 61.04652 | 9.59432 | 24204 ft | 307 kts | 306° |
| 2026-05-01 10:17 | 61.16138 | 9.33441 | 24207 ft | 306 kts | 305° |
| 2026-05-01 10:17 | 61.21890 | 9.20410 | 24205 ft | 306 kts | 305° |
| 2026-05-01 10:18 | 61.33379 | 8.93973 | 24211 ft | 309 kts | 305° |
| 2026-05-01 10:18 | 61.39130 | 8.80658 | 24208 ft | 308 kts | 303° |
| 2026-05-01 10:18 | 61.44777 | 8.67431 | 24204 ft | 309 kts | 304° |
| 2026-05-01 10:19 | 61.50572 | 8.53878 | 24206 ft | 309 kts | 304° |
| 2026-05-01 10:19 | 61.56193 | 8.40604 | 24221 ft | 306 kts | 302° |
| 2026-05-01 10:19 | 61.61833 | 8.27180 | 24219 ft | 307 kts | 303° |
| 2026-05-01 10:20 | 61.73047 | 8.00322 | 24210 ft | 303 kts | 302° |
| 2026-05-01 10:20 | 61.78613 | 7.86876 | 24198 ft | 304 kts | 303° |
| 2026-05-01 10:20 | 61.84147 | 7.73445 | 24183 ft | 302 kts | 302° |
| 2026-05-01 10:20 | 61.89101 | 7.61306 | 24187 ft | 302 kts | 301° |
| 2026-05-01 10:21 | 61.90473 | 7.57930 | 24185 ft | 302 kts | 302° |
| 2026-05-01 10:21 | 61.93224 | 7.51170 | 24073 ft | 304 kts | 301° |
| 2026-05-01 10:21 | 61.94594 | 7.47792 | 23620 ft | 301 kts | 302° |
| 2026-05-01 10:22 | 61.97327 | 7.41038 | 22562 ft | 301 kts | 302° |
| 2026-05-01 10:22 | 62.02225 | 7.19637 | 19627 ft | 267 kts | 280° |
| 2026-05-01 10:23 | 62.02901 | 7.15932 | 19178 ft | 267 kts | 287° |
| 2026-05-01 10:23 | 62.03710 | 7.08611 | 18206 ft | 252 kts | 272° |
| 2026-05-01 10:23 | 62.03948 | 7.04965 | 17665 ft | 250 kts | 273° |
| 2026-05-01 10:24 | 62.04500 | 6.97565 | 16611 ft | 254 kts | 281° |
| 2026-05-01 10:24 | 62.11061 | 6.79115 | 14149 ft | 237 kts | 290° |
| 2026-05-01 10:25 | 62.12539 | 6.72909 | 14120 ft | 228 kts | 281° |
| 2026-05-01 10:25 | 62.13571 | 6.66579 | 13536 ft | 225 kts | 280° |
| 2026-05-01 10:26 | 62.14066 | 6.63394 | 12762 ft | 228 kts | 280° |
| 2026-05-01 10:26 | 62.14557 | 6.60127 | 12005 ft | 230 kts | 279° |
| 2026-05-01 10:26 | 62.16150 | 6.49565 | 8910 ft | 165 kts | 274° |
| 2026-05-01 10:27 | 62.16589 | 6.39089 | 5868 ft | 162 kts | 265° |
| 2026-05-01 10:27 | 62.18965 | 6.15207 | 2127 ft | 189 kts | 262° |
| 2026-05-01 10:28 | 62.18910 | 6.12541 | 1436 ft | 171 kts | 258° |
| 2026-05-01 10:28 | 62.18233 | 6.08304 | 306 ft | 133 kts | 239° |
| 2026-05-01 10:28 | 62.17861 | 6.06891 | 245 ft | 57 kts | 242° |
| 2026-05-01 10:29 | 62.17826 | 6.06743 | 248 ft | 17 kts | 59° |
| 2026-05-01 10:29 | 62.17900 | 6.07019 | 245 ft | 24 kts | 59° |
| 2026-05-01 10:30 | 62.18067 | 6.07647 | 247 ft | 24 kts | 60° |
| 2026-05-01 10:30 | 62.18070 | 6.07949 | 246 ft | 1 kts | 60° |